createdAt,value
2023-04-15T00:00:26.061Z,8.57
2023-04-15T00:03:28.693Z,8.65
2023-04-15T00:06:31.054Z,8.59
2023-04-15T00:09:32.440Z,8.52
2023-04-15T00:12:33.835Z,8.50
2023-04-15T00:15:35.242Z,8.60
2023-04-15T00:18:38.341Z,8.51
2023-04-15T00:21:39.833Z,8.39
2023-04-15T00:24:42.934Z,8.63
2023-04-15T00:27:44.398Z,8.62
2023-04-15T00:30:46.102Z,7.87
2023-04-15T00:33:48.691Z,8.02
2023-04-15T00:36:52.520Z,8.14
2023-04-15T00:39:54.378Z,8.07
2023-04-15T00:42:55.846Z,7.88
2023-04-15T00:45:59.537Z,7.88
2023-04-15T00:49:02.822Z,8.13
2023-04-15T00:52:04.628Z,7.79
2023-04-15T00:55:06.999Z,7.46
2023-04-15T00:58:08.606Z,7.77
2023-04-15T01:01:11.337Z,7.62
2023-04-15T01:04:13.128Z,7.49
2023-04-15T01:07:14.876Z,7.40
2023-04-15T01:10:16.345Z,7.84
2023-04-15T01:13:19.159Z,7.46
2023-04-15T01:16:21.225Z,7.51
2023-04-15T01:19:22.683Z,7.46
2023-04-15T01:22:27.802Z,7.36
2023-04-15T01:25:33.626Z,7.30
2023-04-15T01:28:36.239Z,6.93
2023-04-15T01:31:39.352Z,7.02
2023-04-15T01:34:40.773Z,7.21
2023-04-15T01:37:42.663Z,7.06
2023-04-15T01:40:44.874Z,6.90
2023-04-15T01:43:46.307Z,7.17
2023-04-15T01:46:48.296Z,7.07
2023-04-15T01:49:49.738Z,7.01
2023-04-15T01:52:51.177Z,7.06
2023-04-15T01:55:53.176Z,7.08
2023-04-15T01:58:54.657Z,6.64
2023-04-15T02:01:56.341Z,6.75
2023-04-15T02:04:57.973Z,6.41
2023-04-15T02:07:59.391Z,6.39
2023-04-15T02:11:01.230Z,6.29
2023-04-15T02:14:06.808Z,6.79
2023-04-15T02:17:08.351Z,6.81
2023-04-15T02:20:10.664Z,6.83
2023-04-15T02:23:12.177Z,6.91
2023-04-15T02:26:14.008Z,7.00
2023-04-15T02:29:15.514Z,6.97
2023-04-15T02:32:17.188Z,6.90
2023-04-15T02:35:21.741Z,6.59
2023-04-15T02:38:23.209Z,6.57
2023-04-15T02:41:27.651Z,6.83
2023-04-15T02:44:29.365Z,6.74
2023-04-15T02:47:35.897Z,6.72
2023-04-15T02:50:40.659Z,6.52
2023-04-15T02:53:43.670Z,6.62
2023-04-15T02:56:45.426Z,6.47
2023-04-15T02:59:46.908Z,6.27
2023-04-15T03:02:52.217Z,6.45
2023-04-15T03:05:54.269Z,6.93
2023-04-15T03:08:56.885Z,7.12
2023-04-15T03:11:58.577Z,7.06
2023-04-15T03:15:01.995Z,6.99
2023-04-15T03:18:09.808Z,6.91
2023-04-15T03:21:11.267Z,6.96
2023-04-15T03:24:14.115Z,6.83
2023-04-15T03:27:15.554Z,6.80
2023-04-15T03:30:18.004Z,6.81
2023-04-15T03:33:20.406Z,6.88
2023-04-15T03:36:21.826Z,6.94
2023-04-15T03:39:23.278Z,6.78
2023-04-15T03:42:24.697Z,6.77
2023-04-15T03:45:26.095Z,6.84
2023-04-15T03:48:27.504Z,6.93
2023-04-15T03:51:28.927Z,6.81
2023-04-15T03:54:30.415Z,6.81
2023-04-15T03:57:31.847Z,6.43
2023-04-15T04:00:33.271Z,6.61
2023-04-15T04:03:34.791Z,6.75
2023-04-15T04:06:36.472Z,6.54
2023-04-15T04:09:40.526Z,6.67
2023-04-15T04:12:42.024Z,6.44
2023-04-15T04:15:43.481Z,6.40
2023-04-15T04:18:45.053Z,6.49
2023-04-15T04:21:46.526Z,6.46
2023-04-15T04:24:47.942Z,6.49
2023-04-15T04:27:49.373Z,6.70
2023-04-15T04:30:50.997Z,6.79
2023-04-15T04:33:52.445Z,6.86
2023-04-15T04:36:53.879Z,6.74
2023-04-15T04:39:55.423Z,6.79
2023-04-15T04:42:56.957Z,6.82
2023-04-15T04:45:58.375Z,6.93
2023-04-15T04:48:59.807Z,6.89
2023-04-15T04:52:01.562Z,6.94
2023-04-15T04:55:03.456Z,6.93
2023-04-15T04:58:04.879Z,6.84
2023-04-15T05:01:06.337Z,6.87
2023-04-15T05:04:07.944Z,6.90
2023-04-15T05:07:09.525Z,6.89
2023-04-15T05:10:11.412Z,7.02
2023-04-15T05:13:12.978Z,7.05
2023-04-15T05:16:14.445Z,7.30
2023-04-15T05:19:15.924Z,7.19
2023-04-15T05:22:17.406Z,7.48
2023-04-15T05:25:18.879Z,7.59
2023-04-15T05:28:20.400Z,7.53
2023-04-15T05:31:21.829Z,7.64
2023-04-15T05:34:23.277Z,7.70
2023-04-15T05:37:24.806Z,7.83
2023-04-15T05:40:26.608Z,7.69
2023-04-15T05:43:28.033Z,7.58
2023-04-15T05:46:29.472Z,7.57
2023-04-15T05:49:31.015Z,7.60
2023-04-15T05:52:32.536Z,7.32
2023-04-15T05:55:34.082Z,7.50
2023-04-15T05:58:35.731Z,7.71
2023-04-15T06:01:37.263Z,7.81
2023-04-15T06:04:39.461Z,7.97
2023-04-15T06:07:41.148Z,7.93
2023-04-15T06:10:42.664Z,7.93
2023-04-15T06:13:44.104Z,8.14
2023-04-15T06:16:45.585Z,8.27
2023-04-15T06:19:46.991Z,8.15
2023-04-15T06:22:48.406Z,8.25
2023-04-15T06:25:49.833Z,8.28
2023-04-15T06:28:51.293Z,8.16
2023-04-15T06:31:52.812Z,8.00
2023-04-15T06:34:54.440Z,7.99
2023-04-15T06:37:56.710Z,7.81
2023-04-15T06:40:58.181Z,7.59
2023-04-15T06:43:59.813Z,7.51
2023-04-15T06:47:01.272Z,7.88
2023-04-15T06:50:04.029Z,8.24
2023-04-15T06:53:05.752Z,8.45
2023-04-15T06:56:09.368Z,8.41
2023-04-15T06:59:10.898Z,8.75
2023-04-15T07:02:14.349Z,8.97
2023-04-15T07:05:16.270Z,9.09
2023-04-15T07:08:17.695Z,9.04
2023-04-15T07:11:19.897Z,9.16
2023-04-15T07:14:21.426Z,9.04
2023-04-15T07:17:22.875Z,9.12
2023-04-15T07:20:24.314Z,8.91
2023-04-15T07:23:25.745Z,9.09
2023-04-15T07:26:27.168Z,9.18
2023-04-15T07:29:28.605Z,9.26
2023-04-15T07:32:30.069Z,9.16
2023-04-15T07:35:31.659Z,9.37
2023-04-15T07:38:33.135Z,9.28
2023-04-15T07:41:34.703Z,9.60
2023-04-15T07:44:36.244Z,9.89
2023-04-15T07:47:37.690Z,10.00
2023-04-15T07:50:39.342Z,10.05
2023-04-15T07:53:40.858Z,9.87
2023-04-15T07:56:42.314Z,10.10
2023-04-15T07:59:43.792Z,10.65
2023-04-15T08:02:46.896Z,10.81
2023-04-15T08:05:48.558Z,10.89
2023-04-15T08:08:50.173Z,11.56
2023-04-15T08:11:51.588Z,11.88
2023-04-15T08:14:53.080Z,12.16
2023-04-15T08:17:54.874Z,11.91
2023-04-15T08:20:56.280Z,11.31
2023-04-15T08:23:57.758Z,11.06
2023-04-15T08:26:59.871Z,11.13
2023-04-15T08:30:04.239Z,10.89
2023-04-15T08:33:06.416Z,11.44
2023-04-15T08:36:08.454Z,11.50
2023-04-15T08:39:10.001Z,11.57
2023-04-15T08:42:16.558Z,11.43
2023-04-15T08:45:18.597Z,11.51
2023-04-15T08:48:20.549Z,12.05
2023-04-15T08:51:26.543Z,12.16
2023-04-15T08:54:28.476Z,11.82
2023-04-15T08:57:30.062Z,11.68
2023-04-15T09:00:33.413Z,12.10
2023-04-15T09:03:35.238Z,12.62
2023-04-15T09:06:37.100Z,12.82
2023-04-15T09:09:40.205Z,12.70
2023-04-15T09:12:41.607Z,12.84
2023-04-15T09:15:43.019Z,12.90
2023-04-15T09:18:44.507Z,13.03
2023-04-15T09:21:48.228Z,13.31
2023-04-15T09:24:49.628Z,13.37
2023-04-15T09:27:56.826Z,13.47
2023-04-15T09:31:01.066Z,13.10
2023-04-15T09:34:02.903Z,13.11
2023-04-15T09:37:04.602Z,12.91
2023-04-15T09:40:06.716Z,13.12
2023-04-15T09:43:09.845Z,13.20
2023-04-15T09:46:11.645Z,13.37
2023-04-15T09:49:13.437Z,14.87
2023-04-15T09:52:14.972Z,14.11
2023-04-15T09:55:18.366Z,15.22
2023-04-15T09:58:33.734Z,15.38
2023-04-15T10:01:38.959Z,15.35
2023-04-15T10:04:42.091Z,15.20
2023-04-15T10:07:44.133Z,15.11
2023-04-15T10:10:47.274Z,14.89
2023-04-15T10:13:50.526Z,14.90
2023-04-15T10:16:56.455Z,15.46
2023-04-15T10:19:57.912Z,15.09
2023-04-15T10:22:59.538Z,15.59
2023-04-15T10:26:02.581Z,15.87
2023-04-15T10:29:05.046Z,15.64
2023-04-15T10:32:07.141Z,16.02
2023-04-15T10:35:09.485Z,15.20
2023-04-15T10:38:32.879Z,15.43
2023-04-15T10:41:35.733Z,16.20
2023-04-15T10:44:41.535Z,16.30
2023-04-15T10:47:43.928Z,15.14
2023-04-15T10:50:56.453Z,16.42
2023-04-15T10:54:01.033Z,16.31
2023-04-15T10:57:08.687Z,16.12
2023-04-15T11:00:12.994Z,15.44
2023-04-15T11:03:14.839Z,17.11
2023-04-15T11:06:16.452Z,16.68
2023-04-15T11:09:33.766Z,17.66
2023-04-15T11:12:36.415Z,16.57
2023-04-15T11:15:43.002Z,17.74
2023-04-15T11:18:54.861Z,18.59
2023-04-15T11:21:56.806Z,17.13
2023-04-15T11:24:58.436Z,16.02
2023-04-15T11:28:01.905Z,15.66
2023-04-15T11:31:15.283Z,16.88
2023-04-15T11:34:24.009Z,16.28
2023-04-15T11:37:30.336Z,16.96
2023-04-15T11:40:33.433Z,16.43
2023-04-15T11:43:35.497Z,17.52
2023-04-15T11:46:37.318Z,18.53
2023-04-15T11:49:41.430Z,19.42
2023-04-15T11:53:01.316Z,18.18
2023-04-15T11:56:02.986Z,17.89
2023-04-15T11:59:04.540Z,17.38
2023-04-15T12:02:12.979Z,18.21
2023-04-15T12:05:14.684Z,17.95
2023-04-15T12:08:16.189Z,17.00
2023-04-15T12:11:18.342Z,17.21
2023-04-15T12:14:25.332Z,17.11
2023-04-15T12:17:28.142Z,17.34
2023-04-15T12:20:31.284Z,17.08
2023-04-15T12:23:37.795Z,17.19
2023-04-15T12:26:53.624Z,17.35
2023-04-15T12:30:05.138Z,16.98
2023-04-15T12:33:06.770Z,16.96
2023-04-15T12:36:08.551Z,16.59
2023-04-15T12:39:10.360Z,16.34
2023-04-15T12:42:12.309Z,16.19
2023-04-15T12:45:13.986Z,15.92
2023-04-15T12:48:15.430Z,16.49
2023-04-15T12:51:16.838Z,16.48
2023-04-15T12:54:18.978Z,16.63
2023-04-15T12:57:20.342Z,16.54
2023-04-15T13:00:21.989Z,16.39
2023-04-15T13:03:23.689Z,16.34
2023-04-15T13:06:25.527Z,16.26
2023-04-15T13:09:27.111Z,16.32
2023-04-15T13:12:28.629Z,16.21
2023-04-15T13:15:30.141Z,16.33
2023-04-15T13:18:31.748Z,16.29
2023-04-15T13:21:35.703Z,16.34
2023-04-15T13:24:39.232Z,16.12
2023-04-15T13:27:40.735Z,16.41
2023-04-15T13:30:42.897Z,16.43
2023-04-15T13:33:47.034Z,16.37
2023-04-15T13:36:48.524Z,15.85
2023-04-15T13:39:49.977Z,16.05
2023-04-15T13:42:52.054Z,16.41
2023-04-15T13:45:53.396Z,16.16
2023-04-15T13:48:54.848Z,15.73
2023-04-15T13:51:56.294Z,15.69
2023-04-15T13:55:08.458Z,15.92
2023-04-15T13:58:19.112Z,16.28
2023-04-15T14:01:21.111Z,16.11
2023-04-15T14:04:22.714Z,16.32
2023-04-15T14:07:24.448Z,15.90
2023-04-15T14:10:25.859Z,16.20
2023-04-15T14:13:27.327Z,16.07
2023-04-15T14:16:28.841Z,15.76
2023-04-15T14:19:31.404Z,15.91
2023-04-15T14:22:32.812Z,15.98
2023-04-15T14:25:34.387Z,16.10
2023-04-15T14:28:38.207Z,16.10
2023-04-15T14:31:39.772Z,15.91
2023-04-15T14:34:42.978Z,15.80
2023-04-15T14:37:44.368Z,15.87
2023-04-15T14:40:45.876Z,15.90
2023-04-15T14:43:47.363Z,16.02
2023-04-15T14:46:48.816Z,15.71
2023-04-15T14:49:50.681Z,16.18
2023-04-15T14:52:52.109Z,16.12
2023-04-15T14:55:53.544Z,15.96
2023-04-15T14:58:54.966Z,15.75
2023-04-15T15:01:56.835Z,16.06
2023-04-15T15:04:59.272Z,16.27
2023-04-15T15:08:00.814Z,16.07
2023-04-15T15:11:02.265Z,16.22
2023-04-15T15:14:03.864Z,16.07
2023-04-15T15:17:05.273Z,16.17
2023-04-15T15:20:07.162Z,15.82
2023-04-15T15:23:08.606Z,15.67
2023-04-15T15:26:10.201Z,15.66
2023-04-15T15:29:11.628Z,15.74
2023-04-15T15:32:13.038Z,15.92
2023-04-15T15:35:14.563Z,15.16
2023-04-15T15:38:16.136Z,15.28
2023-04-15T15:41:17.638Z,15.73
2023-04-15T15:44:19.065Z,15.88
2023-04-15T15:47:22.116Z,15.54
2023-04-15T15:50:23.777Z,15.71
2023-04-15T15:53:25.908Z,15.80
2023-04-15T15:56:27.280Z,15.90
2023-04-15T15:59:28.726Z,15.83
2023-04-15T16:02:59.802Z,15.75
2023-04-15T16:05:53.240Z,15.61
2023-04-15T16:08:54.894Z,15.70
2023-04-15T16:11:57.520Z,15.38
2023-04-15T16:14:59.015Z,15.26
2023-04-15T16:18:00.568Z,15.28
2023-04-15T16:21:02.045Z,15.35
2023-04-15T16:24:03.532Z,15.03
2023-04-15T16:27:04.943Z,15.33
2023-04-15T16:30:07.104Z,15.23
2023-04-15T16:33:09.443Z,15.24
2023-04-15T16:36:10.953Z,15.24
2023-04-15T16:39:12.639Z,15.02
2023-04-15T16:42:14.062Z,15.12
2023-04-15T16:45:15.793Z,15.13
2023-04-15T16:48:18.423Z,15.09
2023-04-15T16:51:19.861Z,14.94
2023-04-15T16:54:21.346Z,14.69
2023-04-15T16:57:22.768Z,14.87
2023-04-15T17:00:26.359Z,14.73
2023-04-15T17:03:27.848Z,14.79
2023-04-15T17:06:29.511Z,14.69
2023-04-15T17:09:31.128Z,14.57
2023-04-15T17:12:32.549Z,14.57
2023-04-15T17:15:34.032Z,14.42
2023-04-15T17:18:35.596Z,14.37
2023-04-15T17:21:37.018Z,14.37
2023-04-15T17:24:38.510Z,14.24
2023-04-15T17:27:40.157Z,14.26
2023-04-15T17:30:41.813Z,14.33
2023-04-15T17:34:00.444Z,14.35
2023-04-15T17:37:06.796Z,13.97
2023-04-15T17:40:08.880Z,14.15
2023-04-15T17:43:10.477Z,14.09
2023-04-15T17:46:13.182Z,14.18
2023-04-15T17:49:15.071Z,14.08
2023-04-15T17:52:16.702Z,13.98
2023-04-15T17:55:18.149Z,13.85
2023-04-15T17:58:20.089Z,13.64
2023-04-15T18:01:22.315Z,13.35
2023-04-15T18:04:26.463Z,13.26
2023-04-15T18:07:28.344Z,13.33
2023-04-15T18:10:29.753Z,13.05
2023-04-15T18:13:31.190Z,12.88
2023-04-15T18:16:32.645Z,12.84
2023-04-15T18:19:34.190Z,12.97
2023-04-15T18:22:35.713Z,12.87
2023-04-15T18:25:38.420Z,12.75
2023-04-15T18:28:39.969Z,12.60
2023-04-15T18:31:41.507Z,12.37
2023-04-15T18:34:43.014Z,12.39
2023-04-15T18:37:44.477Z,12.27
2023-04-15T18:40:45.959Z,12.00
2023-04-15T18:43:47.389Z,12.12
2023-04-15T18:46:49.788Z,11.97
2023-04-15T18:49:51.718Z,12.13
2023-04-15T18:52:53.150Z,12.07
2023-04-15T18:55:56.180Z,11.79
2023-04-15T18:59:25.883Z,11.79
2023-04-15T19:02:19.464Z,11.69
2023-04-15T19:05:20.966Z,11.23
2023-04-15T19:08:22.573Z,11.63
2023-04-15T19:11:24.016Z,11.78
2023-04-15T19:14:25.680Z,11.57
2023-04-15T19:17:27.118Z,11.63
2023-04-15T19:20:28.631Z,11.53
2023-04-15T19:23:30.927Z,11.16
2023-04-15T19:26:32.312Z,11.32
2023-04-15T19:29:33.724Z,11.19
2023-04-15T19:32:35.731Z,10.97
2023-04-15T19:35:38.172Z,11.08
2023-04-15T19:38:39.596Z,10.91
2023-04-15T19:41:41.032Z,10.97
2023-04-15T19:44:42.822Z,11.14
2023-04-15T19:47:44.504Z,10.88
2023-04-15T19:50:46.306Z,10.96
2023-04-15T19:53:49.523Z,10.92
2023-04-15T19:56:50.994Z,11.08
2023-04-15T19:59:52.461Z,11.19
2023-04-15T20:02:55.846Z,11.02
2023-04-15T20:05:57.427Z,10.98
2023-04-15T20:08:58.874Z,11.13
2023-04-15T20:12:46.625Z,10.93
2023-04-15T20:15:23.432Z,10.89
2023-04-15T20:18:24.999Z,10.52
2023-04-15T20:21:27.030Z,10.77
2023-04-15T20:24:28.444Z,10.79
2023-04-15T20:27:29.943Z,10.69
2023-04-15T20:30:31.383Z,10.73
2023-04-15T20:33:32.850Z,10.62
2023-04-15T20:36:34.332Z,10.64
2023-04-15T20:39:35.954Z,10.58
2023-04-15T20:42:37.941Z,10.79
2023-04-15T20:45:39.585Z,10.86
2023-04-15T20:48:41.014Z,10.60
2023-04-15T20:51:42.416Z,10.40
2023-04-15T20:54:44.185Z,10.64
2023-04-15T20:57:45.865Z,10.52
2023-04-15T21:00:47.370Z,10.77
2023-04-15T21:03:48.918Z,10.58
2023-04-15T21:06:51.948Z,10.70
2023-04-15T21:09:55.212Z,10.69
2023-04-15T21:12:56.644Z,10.86
2023-04-15T21:15:58.123Z,10.78
2023-04-15T21:18:59.617Z,10.82
2023-04-15T21:22:01.426Z,10.81
2023-04-15T21:25:03.257Z,10.88
2023-04-15T21:28:04.883Z,10.79
2023-04-15T21:31:06.519Z,10.79
2023-04-15T21:34:08.503Z,10.78
2023-04-15T21:37:10.022Z,10.82
2023-04-15T21:40:11.850Z,10.91
2023-04-15T21:43:13.241Z,11.02
2023-04-15T21:46:22.539Z,10.76
2023-04-15T21:49:26.477Z,10.60
2023-04-15T21:52:27.934Z,10.63
2023-04-15T21:55:29.327Z,10.78
2023-04-15T21:58:30.760Z,10.72
2023-04-15T22:01:32.204Z,10.87
2023-04-15T22:04:33.855Z,10.86
2023-04-15T22:07:36.261Z,10.84
2023-04-15T22:10:38.827Z,10.79
2023-04-15T22:13:40.878Z,10.78
2023-04-15T22:16:42.472Z,10.38
2023-04-15T22:19:45.184Z,10.51
2023-04-15T22:22:46.613Z,10.50
2023-04-15T22:25:48.184Z,10.52
2023-04-15T22:28:49.716Z,10.71
2023-04-15T22:31:51.500Z,10.67
2023-04-15T22:34:52.973Z,10.71
2023-04-15T22:37:54.493Z,10.69
2023-04-15T22:40:55.964Z,10.80
2023-04-15T22:43:57.396Z,10.67
2023-04-15T22:46:58.829Z,10.63
2023-04-15T22:50:00.265Z,10.61
2023-04-15T22:53:01.700Z,10.70
2023-04-15T22:56:03.134Z,10.60
2023-04-15T22:59:04.650Z,10.64
2023-04-15T23:02:07.082Z,10.65
2023-04-15T23:05:11.988Z,10.71
2023-04-15T23:08:14.633Z,10.69
2023-04-15T23:11:16.220Z,10.67
2023-04-15T23:14:17.666Z,10.44
2023-04-15T23:17:19.150Z,10.45
2023-04-15T23:20:20.618Z,10.27
2023-04-15T23:23:22.111Z,10.35
2023-04-15T23:26:23.568Z,10.52
2023-04-15T23:29:25.011Z,10.44
2023-04-15T23:32:27.447Z,10.53
2023-04-15T23:35:28.914Z,10.44
2023-04-15T23:38:30.362Z,10.25
2023-04-15T23:41:31.804Z,10.31
2023-04-15T23:44:33.270Z,10.38
2023-04-15T23:47:34.719Z,10.47
2023-04-15T23:50:36.152Z,10.43
2023-04-15T23:53:37.573Z,10.29
2023-04-15T23:56:38.948Z,10.18
2023-04-15T23:59:40.419Z,10.29
